sensor_id;sensor_type;location;lat;lon;timestamp;P1;durP1;ratioP1;P2;durP2;ratioP2
46607;SDS011;32330;51.936;7.184;2023-04-25T03:48:54;12.75;;;5.30;;
46607;SDS011;32330;51.936;7.184;2023-04-25T03:51:27;18.90;;;4.13;;
46607;SDS011;32330;51.936;7.184;2023-04-25T03:53:54;12.13;;;4.30;;
46607;SDS011;32330;51.936;7.184;2023-04-25T04:02:02;20.05;;;6.72;;
46607;SDS011;32330;51.936;7.184;2023-04-25T04:04:33;16.27;;;5.15;;
46607;SDS011;32330;51.936;7.184;2023-04-25T04:07:00;14.32;;;4.88;;
46607;SDS011;32330;51.936;7.184;2023-04-25T04:09:31;20.65;;;4.63;;
46607;SDS011;32330;51.936;7.184;2023-04-25T04:11:59;14.73;;;4.13;;
46607;SDS011;32330;51.936;7.184;2023-04-25T04:14:29;12.95;;;4.05;;
46607;SDS011;32330;51.936;7.184;2023-04-25T04:16:56;16.77;;;5.00;;
46607;SDS011;32330;51.936;7.184;2023-04-25T04:19:23;15.85;;;4.45;;
46607;SDS011;32330;51.936;7.184;2023-04-25T04:22:13;18.02;;;5.60;;
46607;SDS011;32330;51.936;7.184;2023-04-25T04:24:41;18.55;;;4.97;;
46607;SDS011;32330;51.936;7.184;2023-04-25T04:27:09;17.75;;;4.80;;
46607;SDS011;32330;51.936;7.184;2023-04-25T04:29:46;17.75;;;5.13;;
46607;SDS011;32330;51.936;7.184;2023-04-25T04:32:33;12.23;;;4.07;;
46607;SDS011;32330;51.936;7.184;2023-04-25T04:35:04;12.57;;;4.63;;
46607;SDS011;32330;51.936;7.184;2023-04-25T04:37:33;14.27;;;4.07;;
46607;SDS011;32330;51.936;7.184;2023-04-25T04:40:01;13.82;;;3.72;;
46607;SDS011;32330;51.936;7.184;2023-04-25T04:42:49;14.40;;;4.53;;
46607;SDS011;32330;51.936;7.184;2023-04-25T04:45:27;14.02;;;3.65;;
46607;SDS011;32330;51.936;7.184;2023-04-25T04:48:13;15.38;;;4.03;;
46607;SDS011;32330;51.936;7.184;2023-04-25T04:51:00;17.92;;;4.40;;
46607;SDS011;32330;51.936;7.184;2023-04-25T04:53:48;13.10;;;4.35;;
46607;SDS011;32330;51.936;7.184;2023-04-25T04:56:22;16.30;;;5.30;;
46607;SDS011;32330;51.936;7.184;2023-04-25T04:59:10;13.75;;;5.72;;
46607;SDS011;32330;51.936;7.184;2023-04-25T05:02:16;11.52;;;3.72;;
46607;SDS011;32330;51.936;7.184;2023-04-25T05:04:59;14.43;;;4.82;;
46607;SDS011;32330;51.936;7.184;2023-04-25T05:07:38;12.48;;;4.40;;
46607;SDS011;32330;51.936;7.184;2023-04-25T05:10:27;10.10;;;3.63;;
46607;SDS011;32330;51.936;7.184;2023-04-25T05:13:02;14.27;;;3.95;;
46607;SDS011;32330;51.936;7.184;2023-04-25T05:15:29;11.82;;;4.22;;
46607;SDS011;32330;51.936;7.184;2023-04-25T05:18:18;16.13;;;3.90;;
46607;SDS011;32330;51.936;7.184;2023-04-25T05:21:04;17.30;;;4.57;;
46607;SDS011;32330;51.936;7.184;2023-04-25T05:23:48;13.45;;;4.10;;
46607;SDS011;32330;51.936;7.184;2023-04-25T05:26:46;17.08;;;4.55;;
46607;SDS011;32330;51.936;7.184;2023-04-25T05:29:23;10.32;;;3.97;;
46607;SDS011;32330;51.936;7.184;2023-04-25T05:32:01;11.80;;;4.43;;
46607;SDS011;32330;51.936;7.184;2023-04-25T05:34:29;13.77;;;4.47;;
46607;SDS011;32330;51.936;7.184;2023-04-25T05:36:59;15.05;;;4.40;;
46607;SDS011;32330;51.936;7.184;2023-04-25T05:39:27;13.18;;;4.78;;
46607;SDS011;32330;51.936;7.184;2023-04-25T05:42:24;10.30;;;3.88;;
46607;SDS011;32330;51.936;7.184;2023-04-25T05:45:02;13.25;;;4.97;;
46607;SDS011;32330;51.936;7.184;2023-04-25T05:47:56;12.05;;;5.10;;
46607;SDS011;32330;51.936;7.184;2023-04-25T05:50:37;15.80;;;5.68;;
46607;SDS011;32330;51.936;7.184;2023-04-25T05:53:33;17.63;;;4.63;;
46607;SDS011;32330;51.936;7.184;2023-04-25T05:56:01;13.95;;;4.07;;
46607;SDS011;32330;51.936;7.184;2023-04-25T05:58:30;12.93;;;4.70;;
46607;SDS011;32330;51.936;7.184;2023-04-25T06:00:58;11.65;;;3.78;;
46607;SDS011;32330;51.936;7.184;2023-04-25T06:03:25;12.60;;;4.20;;
46607;SDS011;32330;51.936;7.184;2023-04-25T06:05:52;10.85;;;3.88;;
46607;SDS011;32330;51.936;7.184;2023-04-25T06:08:19;12.07;;;4.82;;
46607;SDS011;32330;51.936;7.184;2023-04-25T06:10:46;16.10;;;4.13;;
46607;SDS011;32330;51.936;7.184;2023-04-25T06:13:14;10.40;;;3.78;;
46607;SDS011;32330;51.936;7.184;2023-04-25T06:15:43;14.65;;;3.38;;
46607;SDS011;32330;51.936;7.184;2023-04-25T06:18:11;14.05;;;4.18;;
46607;SDS011;32330;51.936;7.184;2023-04-25T06:20:38;12.15;;;4.43;;
46607;SDS011;32330;51.936;7.184;2023-04-25T06:23:05;15.88;;;4.68;;
46607;SDS011;32330;51.936;7.184;2023-04-25T06:25:40;15.45;;;4.28;;
46607;SDS011;32330;51.936;7.184;2023-04-25T06:28:07;18.52;;;4.68;;
46607;SDS011;32330;51.936;7.184;2023-04-25T06:30:35;13.10;;;3.83;;
46607;SDS011;32330;51.936;7.184;2023-04-25T06:33:08;14.15;;;3.72;;
46607;SDS011;32330;51.936;7.184;2023-04-25T06:35:35;14.35;;;4.00;;
46607;SDS011;32330;51.936;7.184;2023-04-25T06:38:03;13.80;;;3.70;;
46607;SDS011;32330;51.936;7.184;2023-04-25T06:40:31;12.02;;;4.00;;
46607;SDS011;32330;51.936;7.184;2023-04-25T06:42:58;13.40;;;4.25;;
46607;SDS011;32330;51.936;7.184;2023-04-25T06:45:37;11.25;;;3.90;;
46607;SDS011;32330;51.936;7.184;2023-04-25T06:48:08;16.70;;;4.20;;
46607;SDS011;32330;51.936;7.184;2023-04-25T06:50:35;18.45;;;4.20;;
46607;SDS011;32330;51.936;7.184;2023-04-25T06:53:02;12.35;;;3.70;;
46607;SDS011;32330;51.936;7.184;2023-04-25T06:55:29;14.52;;;4.13;;
46607;SDS011;32330;51.936;7.184;2023-04-25T06:58:07;13.82;;;3.63;;
46607;SDS011;32330;51.936;7.184;2023-04-25T07:00:53;14.82;;;4.53;;
46607;SDS011;32330;51.936;7.184;2023-04-25T07:03:24;11.32;;;3.90;;
46607;SDS011;32330;51.936;7.184;2023-04-25T07:05:55;13.52;;;3.85;;
46607;SDS011;32330;51.936;7.184;2023-04-25T07:08:23;15.90;;;3.33;;
46607;SDS011;32330;51.936;7.184;2023-04-25T07:10:50;14.93;;;3.40;;
46607;SDS011;32330;51.936;7.184;2023-04-25T07:13:17;8.60;;;3.03;;
46607;SDS011;32330;51.936;7.184;2023-04-25T07:15:44;12.55;;;3.47;;
46607;SDS011;32330;51.936;7.184;2023-04-25T07:18:13;10.98;;;3.00;;
46607;SDS011;32330;51.936;7.184;2023-04-25T07:20:41;11.93;;;2.88;;
46607;SDS011;32330;51.936;7.184;2023-04-25T07:23:08;14.35;;;3.72;;
46607;SDS011;32330;51.936;7.184;2023-04-25T07:25:36;13.25;;;3.25;;
46607;SDS011;32330;51.936;7.184;2023-04-25T07:28:03;12.32;;;3.10;;
46607;SDS011;32330;51.936;7.184;2023-04-25T07:30:31;13.20;;;3.30;;
46607;SDS011;32330;51.936;7.184;2023-04-25T07:33:02;7.75;;;2.28;;
46607;SDS011;32330;51.936;7.184;2023-04-25T07:35:29;12.00;;;2.50;;
46607;SDS011;32330;51.936;7.184;2023-04-25T07:37:57;10.98;;;2.63;;
46607;SDS011;32330;51.936;7.184;2023-04-25T07:40:25;8.70;;;2.22;;
46607;SDS011;32330;51.936;7.184;2023-04-25T07:42:57;12.80;;;3.00;;
46607;SDS011;32330;51.936;7.184;2023-04-25T07:45:34;12.18;;;3.13;;
46607;SDS011;32330;51.936;7.184;2023-04-25T07:48:02;12.13;;;2.42;;
46607;SDS011;32330;51.936;7.184;2023-04-25T07:50:31;13.77;;;3.35;;
46607;SDS011;32330;51.936;7.184;2023-04-25T07:52:59;13.93;;;4.03;;
46607;SDS011;32330;51.936;7.184;2023-04-25T07:55:35;11.60;;;2.92;;
46607;SDS011;32330;51.936;7.184;2023-04-25T07:58:13;12.07;;;2.90;;
46607;SDS011;32330;51.936;7.184;2023-04-25T08:00:43;11.73;;;2.67;;
46607;SDS011;32330;51.936;7.184;2023-04-25T08:03:24;11.93;;;3.50;;
46607;SDS011;32330;51.936;7.184;2023-04-25T08:05:52;12.10;;;2.63;;
46607;SDS011;32330;51.936;7.184;2023-04-25T08:08:21;11.35;;;3.25;;
46607;SDS011;32330;51.936;7.184;2023-04-25T08:10:48;9.30;;;2.47;;
46607;SDS011;32330;51.936;7.184;2023-04-25T08:13:16;10.85;;;3.00;;
46607;SDS011;32330;51.936;7.184;2023-04-25T08:15:44;10.88;;;3.40;;
46607;SDS011;32330;51.936;7.184;2023-04-25T08:18:11;8.57;;;2.33;;
46607;SDS011;32330;51.936;7.184;2023-04-25T08:20:40;10.10;;;2.97;;
46607;SDS011;32330;51.936;7.184;2023-04-25T08:23:23;15.88;;;3.78;;
46607;SDS011;32330;51.936;7.184;2023-04-25T09:53:37;6.93;;;1.50;;
46607;SDS011;32330;51.936;7.184;2023-04-25T10:00:54;8.27;;;1.92;;
46607;SDS011;32330;51.936;7.184;2023-04-25T10:05:13;10.20;;;1.50;;
46607;SDS011;32330;51.936;7.184;2023-04-25T10:40:09;6.88;;;2.10;;
46607;SDS011;32330;51.936;7.184;2023-04-25T10:42:37;5.93;;;1.35;;
46607;SDS011;32330;51.936;7.184;2023-04-25T10:45:11;11.32;;;1.88;;
46607;SDS011;32330;51.936;7.184;2023-04-25T10:47:43;8.32;;;1.73;;
46607;SDS011;32330;51.936;7.184;2023-04-25T10:50:11;5.57;;;1.48;;
46607;SDS011;32330;51.936;7.184;2023-04-25T10:52:40;7.03;;;1.30;;
46607;SDS011;32330;51.936;7.184;2023-04-25T10:55:09;6.07;;;1.67;;
46607;SDS011;32330;51.936;7.184;2023-04-25T10:57:37;5.65;;;1.90;;
46607;SDS011;32330;51.936;7.184;2023-04-25T11:00:07;8.15;;;1.90;;
46607;SDS011;32330;51.936;7.184;2023-04-25T11:02:37;6.53;;;2.25;;
46607;SDS011;32330;51.936;7.184;2023-04-25T11:05:08;3.72;;;1.52;;
46607;SDS011;32330;51.936;7.184;2023-04-25T11:07:39;5.60;;;1.27;;
46607;SDS011;32330;51.936;7.184;2023-04-25T11:10:14;5.30;;;1.45;;
46607;SDS011;32330;51.936;7.184;2023-04-25T11:12:41;5.18;;;1.80;;
46607;SDS011;32330;51.936;7.184;2023-04-25T11:15:08;6.80;;;1.50;;
46607;SDS011;32330;51.936;7.184;2023-04-25T11:17:36;6.60;;;1.52;;
46607;SDS011;32330;51.936;7.184;2023-04-25T11:20:05;6.28;;;1.85;;
46607;SDS011;32330;51.936;7.184;2023-04-25T11:22:37;5.00;;;1.35;;
46607;SDS011;32330;51.936;7.184;2023-04-25T11:25:06;5.97;;;1.80;;
46607;SDS011;32330;51.936;7.184;2023-04-25T11:27:36;7.20;;;2.03;;
46607;SDS011;32330;51.936;7.184;2023-04-25T11:30:10;6.25;;;1.90;;
46607;SDS011;32330;51.936;7.184;2023-04-25T11:32:39;6.15;;;2.28;;
46607;SDS011;32330;51.936;7.184;2023-04-25T11:35:07;3.67;;;1.40;;
46607;SDS011;32330;51.936;7.184;2023-04-25T11:37:34;4.18;;;1.67;;
46607;SDS011;32330;51.936;7.184;2023-04-25T11:40:02;6.18;;;2.15;;
46607;SDS011;32330;51.936;7.184;2023-04-25T11:42:31;7.93;;;1.95;;
46607;SDS011;32330;51.936;7.184;2023-04-25T11:45:00;4.35;;;1.40;;
46607;SDS011;32330;51.936;7.184;2023-04-25T11:47:29;5.47;;;1.52;;
46607;SDS011;32330;51.936;7.184;2023-04-25T11:49:57;4.03;;;1.13;;
46607;SDS011;32330;51.936;7.184;2023-04-25T11:52:25;4.18;;;1.50;;
46607;SDS011;32330;51.936;7.184;2023-04-25T11:55:03;4.18;;;1.23;;
46607;SDS011;32330;51.936;7.184;2023-04-25T11:57:32;5.18;;;1.35;;
46607;SDS011;32330;51.936;7.184;2023-04-25T12:00:06;3.38;;;1.25;;
46607;SDS011;32330;51.936;7.184;2023-04-25T12:02:40;5.05;;;1.95;;
46607;SDS011;32330;51.936;7.184;2023-04-25T12:05:08;5.95;;;1.70;;
46607;SDS011;32330;51.936;7.184;2023-04-25T12:07:35;4.72;;;1.30;;
46607;SDS011;32330;51.936;7.184;2023-04-25T12:10:06;4.22;;;1.38;;
46607;SDS011;32330;51.936;7.184;2023-04-25T12:12:34;4.03;;;1.20;;
46607;SDS011;32330;51.936;7.184;2023-04-25T12:15:09;4.07;;;1.25;;
46607;SDS011;32330;51.936;7.184;2023-04-25T12:17:38;5.18;;;1.65;;
46607;SDS011;32330;51.936;7.184;2023-04-25T12:20:06;4.13;;;1.10;;
46607;SDS011;32330;51.936;7.184;2023-04-25T12:22:35;4.72;;;1.52;;
46607;SDS011;32330;51.936;7.184;2023-04-25T12:25:02;6.97;;;1.60;;
46607;SDS011;32330;51.936;7.184;2023-04-25T12:27:30;4.78;;;1.60;;
46607;SDS011;32330;51.936;7.184;2023-04-25T12:29:58;5.53;;;1.90;;
46607;SDS011;32330;51.936;7.184;2023-04-25T12:32:28;5.40;;;1.88;;
46607;SDS011;32330;51.936;7.184;2023-04-25T12:34:56;4.30;;;1.67;;
46607;SDS011;32330;51.936;7.184;2023-04-25T12:37:23;3.25;;;1.35;;
46607;SDS011;32330;51.936;7.184;2023-04-25T12:39:49;4.10;;;1.42;;
46607;SDS011;32330;51.936;7.184;2023-04-25T12:42:16;8.43;;;1.30;;
46607;SDS011;32330;51.936;7.184;2023-04-25T12:44:43;5.35;;;1.40;;
46607;SDS011;32330;51.936;7.184;2023-04-25T12:47:11;10.43;;;6.28;;
46607;SDS011;32330;51.936;7.184;2023-04-25T12:49:39;5.63;;;1.45;;
46607;SDS011;32330;51.936;7.184;2023-04-25T12:52:06;4.15;;;1.45;;
46607;SDS011;32330;51.936;7.184;2023-04-25T12:54:33;3.47;;;1.77;;
46607;SDS011;32330;51.936;7.184;2023-04-25T12:57:00;7.03;;;1.80;;
46607;SDS011;32330;51.936;7.184;2023-04-25T12:59:28;7.75;;;1.70;;
46607;SDS011;32330;51.936;7.184;2023-04-25T13:01:55;4.10;;;1.10;;
46607;SDS011;32330;51.936;7.184;2023-04-25T13:04:21;3.15;;;1.13;;
46607;SDS011;32330;51.936;7.184;2023-04-25T13:06:50;6.78;;;1.23;;
46607;SDS011;32330;51.936;7.184;2023-04-25T13:09:17;6.18;;;1.63;;
46607;SDS011;32330;51.936;7.184;2023-04-25T13:11:44;6.05;;;1.50;;
46607;SDS011;32330;51.936;7.184;2023-04-25T13:14:11;6.50;;;1.63;;
46607;SDS011;32330;51.936;7.184;2023-04-25T13:16:38;4.20;;;1.25;;
46607;SDS011;32330;51.936;7.184;2023-04-25T13:19:05;4.50;;;1.50;;
46607;SDS011;32330;51.936;7.184;2023-04-25T13:21:33;5.38;;;1.20;;
46607;SDS011;32330;51.936;7.184;2023-04-25T13:24:01;6.82;;;1.27;;
46607;SDS011;32330;51.936;7.184;2023-04-25T13:26:29;6.88;;;1.58;;
46607;SDS011;32330;51.936;7.184;2023-04-25T13:33:14;7.05;;;1.40;;
46607;SDS011;32330;51.936;7.184;2023-04-25T13:35:41;7.07;;;1.83;;
46607;SDS011;32330;51.936;7.184;2023-04-25T13:38:08;5.90;;;1.50;;
46607;SDS011;32330;51.936;7.184;2023-04-25T13:40:37;5.20;;;1.80;;
46607;SDS011;32330;51.936;7.184;2023-04-25T13:43:03;4.80;;;1.20;;
46607;SDS011;32330;51.936;7.184;2023-04-25T13:45:31;4.45;;;1.40;;
46607;SDS011;32330;51.936;7.184;2023-04-25T13:47:58;3.53;;;0.90;;
46607;SDS011;32330;51.936;7.184;2023-04-25T13:50:25;3.33;;;0.90;;
46607;SDS011;32330;51.936;7.184;2023-04-25T13:52:52;3.30;;;1.05;;
46607;SDS011;32330;51.936;7.184;2023-04-25T13:55:19;5.47;;;1.10;;
46607;SDS011;32330;51.936;7.184;2023-04-25T13:57:48;3.28;;;1.02;;
46607;SDS011;32330;51.936;7.184;2023-04-25T14:00:15;3.75;;;1.08;;
46607;SDS011;32330;51.936;7.184;2023-04-25T14:05:45;3.83;;;1.15;;
46607;SDS011;32330;51.936;7.184;2023-04-25T14:08:12;4.80;;;1.52;;
46607;SDS011;32330;51.936;7.184;2023-04-25T14:10:40;3.25;;;1.30;;
46607;SDS011;32330;51.936;7.184;2023-04-25T14:13:08;4.40;;;1.10;;
46607;SDS011;32330;51.936;7.184;2023-04-25T14:15:35;5.53;;;1.25;;
46607;SDS011;32330;51.936;7.184;2023-04-25T14:18:03;3.50;;;1.00;;
46607;SDS011;32330;51.936;7.184;2023-04-25T14:20:30;5.35;;;1.30;;
46607;SDS011;32330;51.936;7.184;2023-04-25T14:22:57;4.70;;;1.00;;
46607;SDS011;32330;51.936;7.184;2023-04-25T14:25:24;5.05;;;2.03;;
46607;SDS011;32330;51.936;7.184;2023-04-25T14:27:51;6.30;;;1.30;;
46607;SDS011;32330;51.936;7.184;2023-04-25T14:30:20;2.90;;;0.88;;
46607;SDS011;32330;51.936;7.184;2023-04-25T14:32:48;4.60;;;1.10;;
46607;SDS011;32330;51.936;7.184;2023-04-25T14:35:15;3.92;;;0.95;;
46607;SDS011;32330;51.936;7.184;2023-04-25T14:37:42;3.30;;;0.80;;
46607;SDS011;32330;51.936;7.184;2023-04-25T14:40:10;4.97;;;1.58;;
46607;SDS011;32330;51.936;7.184;2023-04-25T14:42:38;6.90;;;0.90;;
46607;SDS011;32330;51.936;7.184;2023-04-25T14:45:06;4.40;;;1.08;;
46607;SDS011;32330;51.936;7.184;2023-04-25T14:47:35;4.95;;;1.30;;
46607;SDS011;32330;51.936;7.184;2023-04-25T14:50:03;3.00;;;1.52;;
46607;SDS011;32330;51.936;7.184;2023-04-25T14:52:30;3.67;;;1.20;;
46607;SDS011;32330;51.936;7.184;2023-04-25T14:54:57;4.95;;;1.20;;
46607;SDS011;32330;51.936;7.184;2023-04-25T14:57:25;3.45;;;1.00;;
46607;SDS011;32330;51.936;7.184;2023-04-25T14:59:52;3.33;;;1.50;;
46607;SDS011;32330;51.936;7.184;2023-04-25T15:02:19;3.55;;;0.90;;
46607;SDS011;32330;51.936;7.184;2023-04-25T15:04:47;5.45;;;0.90;;
46607;SDS011;32330;51.936;7.184;2023-04-25T15:07:14;4.00;;;1.17;;
46607;SDS011;32330;51.936;7.184;2023-04-25T15:09:41;3.13;;;0.85;;
46607;SDS011;32330;51.936;7.184;2023-04-25T15:12:08;5.13;;;1.48;;
46607;SDS011;32330;51.936;7.184;2023-04-25T15:14:35;4.78;;;1.30;;
46607;SDS011;32330;51.936;7.184;2023-04-25T15:17:02;3.13;;;0.90;;
46607;SDS011;32330;51.936;7.184;2023-04-25T15:19:30;2.53;;;0.90;;
46607;SDS011;32330;51.936;7.184;2023-04-25T15:21:58;1.67;;;0.77;;
46607;SDS011;32330;51.936;7.184;2023-04-25T15:24:26;4.03;;;1.00;;
46607;SDS011;32330;51.936;7.184;2023-04-25T15:26:53;2.67;;;1.10;;
46607;SDS011;32330;51.936;7.184;2023-04-25T15:29:20;3.78;;;0.95;;
46607;SDS011;32330;51.936;7.184;2023-04-25T15:31:47;17.02;;;2.10;;
46607;SDS011;32330;51.936;7.184;2023-04-25T15:34:14;7.07;;;1.30;;
46607;SDS011;32330;51.936;7.184;2023-04-25T15:36:41;4.65;;;1.30;;
46607;SDS011;32330;51.936;7.184;2023-04-25T15:39:09;6.70;;;1.10;;
46607;SDS011;32330;51.936;7.184;2023-04-25T15:41:36;2.47;;;1.30;;
46607;SDS011;32330;51.936;7.184;2023-04-25T15:44:03;3.85;;;0.90;;
46607;SDS011;32330;51.936;7.184;2023-04-25T15:46:32;3.78;;;1.00;;
46607;SDS011;32330;51.936;7.184;2023-04-25T15:48:58;2.20;;;0.75;;
46607;SDS011;32330;51.936;7.184;2023-04-25T15:51:26;2.45;;;0.88;;
46607;SDS011;32330;51.936;7.184;2023-04-25T15:53:53;3.85;;;1.00;;
46607;SDS011;32330;51.936;7.184;2023-04-25T15:56:21;2.45;;;0.90;;
46607;SDS011;32330;51.936;7.184;2023-04-25T15:58:49;5.13;;;1.70;;
46607;SDS011;32330;51.936;7.184;2023-04-25T16:01:16;3.60;;;1.20;;
46607;SDS011;32330;51.936;7.184;2023-04-25T16:03:43;2.85;;;1.25;;
46607;SDS011;32330;51.936;7.184;2023-04-25T16:06:10;4.00;;;1.33;;
46607;SDS011;32330;51.936;7.184;2023-04-25T16:08:37;4.70;;;1.25;;
46607;SDS011;32330;51.936;7.184;2023-04-25T16:11:05;4.55;;;1.63;;
46607;SDS011;32330;51.936;7.184;2023-04-25T16:13:36;4.85;;;1.02;;
46607;SDS011;32330;51.936;7.184;2023-04-25T16:16:21;13.90;;;9.80;;
46607;SDS011;32330;51.936;7.184;2023-04-25T16:18:48;6.60;;;2.50;;
46607;SDS011;32330;51.936;7.184;2023-04-25T16:21:15;3.30;;;1.30;;
46607;SDS011;32330;51.936;7.184;2023-04-25T16:23:43;8.45;;;1.65;;
46607;SDS011;32330;51.936;7.184;2023-04-25T16:26:09;6.28;;;2.13;;
46607;SDS011;32330;51.936;7.184;2023-04-25T16:28:38;4.88;;;2.13;;
46607;SDS011;32330;51.936;7.184;2023-04-25T16:31:05;4.25;;;1.45;;
46607;SDS011;32330;51.936;7.184;2023-04-25T16:33:32;3.40;;;1.30;;
46607;SDS011;32330;51.936;7.184;2023-04-25T16:35:59;4.32;;;1.60;;
46607;SDS011;32330;51.936;7.184;2023-04-25T16:38:26;7.22;;;2.30;;
46607;SDS011;32330;51.936;7.184;2023-04-25T16:40:53;7.13;;;3.50;;
46607;SDS011;32330;51.936;7.184;2023-04-25T16:43:20;4.05;;;1.13;;
46607;SDS011;32330;51.936;7.184;2023-04-25T16:45:49;4.65;;;1.52;;
46607;SDS011;32330;51.936;7.184;2023-04-25T16:48:15;4.45;;;1.35;;
46607;SDS011;32330;51.936;7.184;2023-04-25T16:50:45;5.63;;;1.67;;
46607;SDS011;32330;51.936;7.184;2023-04-25T16:53:12;6.05;;;1.83;;
46607;SDS011;32330;51.936;7.184;2023-04-25T16:55:39;6.07;;;1.83;;
46607;SDS011;32330;51.936;7.184;2023-04-25T16:58:06;5.53;;;2.17;;
46607;SDS011;32330;51.936;7.184;2023-04-25T17:00:35;6.63;;;2.78;;
46607;SDS011;32330;51.936;7.184;2023-04-25T17:03:04;8.65;;;3.42;;
46607;SDS011;32330;51.936;7.184;2023-04-25T17:05:31;5.28;;;3.30;;
46607;SDS011;32330;51.936;7.184;2023-04-25T17:07:58;11.40;;;3.58;;
46607;SDS011;32330;51.936;7.184;2023-04-25T17:10:25;5.80;;;2.95;;
46607;SDS011;32330;51.936;7.184;2023-04-25T17:12:53;6.28;;;2.45;;
46607;SDS011;32330;51.936;7.184;2023-04-25T17:15:21;9.15;;;3.83;;
46607;SDS011;32330;51.936;7.184;2023-04-25T17:17:48;6.45;;;3.22;;
46607;SDS011;32330;51.936;7.184;2023-04-25T17:20:17;15.70;;;5.65;;
46607;SDS011;32330;51.936;7.184;2023-04-25T17:22:44;7.22;;;3.00;;
46607;SDS011;32330;51.936;7.184;2023-04-25T17:25:11;3.67;;;1.70;;
46607;SDS011;32330;51.936;7.184;2023-04-25T17:27:38;7.63;;;3.17;;
46607;SDS011;32330;51.936;7.184;2023-04-25T17:30:15;5.00;;;1.85;;
46607;SDS011;32330;51.936;7.184;2023-04-25T17:32:45;5.00;;;2.75;;
46607;SDS011;32330;51.936;7.184;2023-04-25T17:35:12;6.15;;;2.47;;
46607;SDS011;32330;51.936;7.184;2023-04-25T17:37:41;6.38;;;1.75;;
46607;SDS011;32330;51.936;7.184;2023-04-25T17:40:09;4.50;;;1.90;;
46607;SDS011;32330;51.936;7.184;2023-04-25T17:42:38;6.47;;;2.20;;
46607;SDS011;32330;51.936;7.184;2023-04-25T17:45:06;12.85;;;2.25;;
46607;SDS011;32330;51.936;7.184;2023-04-25T17:47:35;6.75;;;2.30;;
46607;SDS011;32330;51.936;7.184;2023-04-25T17:50:03;8.40;;;1.60;;
46607;SDS011;32330;51.936;7.184;2023-04-25T17:52:30;5.90;;;2.20;;
46607;SDS011;32330;51.936;7.184;2023-04-25T17:54:59;5.53;;;1.55;;
46607;SDS011;32330;51.936;7.184;2023-04-25T17:57:26;7.82;;;3.08;;
46607;SDS011;32330;51.936;7.184;2023-04-25T17:59:53;5.80;;;2.55;;
46607;SDS011;32330;51.936;7.184;2023-04-25T18:02:22;6.63;;;1.50;;
46607;SDS011;32330;51.936;7.184;2023-04-25T18:04:49;4.70;;;1.60;;
46607;SDS011;32330;51.936;7.184;2023-04-25T18:07:16;4.53;;;1.50;;
46607;SDS011;32330;51.936;7.184;2023-04-25T18:09:43;5.90;;;1.52;;
46607;SDS011;32330;51.936;7.184;2023-04-25T18:12:11;7.38;;;2.25;;
46607;SDS011;32330;51.936;7.184;2023-04-25T18:14:39;5.45;;;2.00;;
46607;SDS011;32330;51.936;7.184;2023-04-25T18:17:06;13.15;;;7.20;;
46607;SDS011;32330;51.936;7.184;2023-04-25T18:19:34;12.50;;;4.47;;
46607;SDS011;32330;51.936;7.184;2023-04-25T18:22:01;8.95;;;3.70;;
46607;SDS011;32330;51.936;7.184;2023-04-25T18:24:28;7.75;;;3.05;;
46607;SDS011;32330;51.936;7.184;2023-04-25T18:26:56;9.68;;;4.63;;
46607;SDS011;32330;51.936;7.184;2023-04-25T18:29:26;13.75;;;4.85;;
46607;SDS011;32330;51.936;7.184;2023-04-25T18:31:53;17.63;;;7.13;;
46607;SDS011;32330;51.936;7.184;2023-04-25T18:34:20;10.18;;;5.03;;
46607;SDS011;32330;51.936;7.184;2023-04-25T18:36:48;8.32;;;3.17;;
46607;SDS011;32330;51.936;7.184;2023-04-25T18:39:17;7.75;;;2.70;;
46607;SDS011;32330;51.936;7.184;2023-04-25T18:41:44;6.70;;;2.30;;
46607;SDS011;32330;51.936;7.184;2023-04-25T18:44:11;5.88;;;2.10;;
46607;SDS011;32330;51.936;7.184;2023-04-25T18:46:40;4.45;;;1.55;;
46607;SDS011;32330;51.936;7.184;2023-04-25T18:49:09;4.20;;;1.63;;
46607;SDS011;32330;51.936;7.184;2023-04-25T18:51:37;3.65;;;1.60;;
46607;SDS011;32330;51.936;7.184;2023-04-25T18:54:05;7.60;;;1.83;;
46607;SDS011;32330;51.936;7.184;2023-04-25T18:56:35;5.72;;;1.80;;
46607;SDS011;32330;51.936;7.184;2023-04-25T19:11:12;4.65;;;2.17;;
46607;SDS011;32330;51.936;7.184;2023-04-25T19:13:39;9.25;;;3.15;;
46607;SDS011;32330;51.936;7.184;2023-04-25T19:16:06;7.80;;;2.25;;
46607;SDS011;32330;51.936;7.184;2023-04-25T19:18:33;6.30;;;2.10;;
46607;SDS011;32330;51.936;7.184;2023-04-25T19:21:00;7.28;;;2.10;;
46607;SDS011;32330;51.936;7.184;2023-04-25T19:23:30;10.40;;;1.92;;
46607;SDS011;32330;51.936;7.184;2023-04-25T19:25:57;6.63;;;2.28;;
46607;SDS011;32330;51.936;7.184;2023-04-25T19:28:25;6.38;;;1.50;;
46607;SDS011;32330;51.936;7.184;2023-04-25T19:30:53;6.82;;;1.77;;
46607;SDS011;32330;51.936;7.184;2023-04-25T19:33:21;3.85;;;1.70;;
46607;SDS011;32330;51.936;7.184;2023-04-25T19:35:48;6.63;;;1.65;;
46607;SDS011;32330;51.936;7.184;2023-04-25T19:38:15;5.00;;;1.88;;
46607;SDS011;32330;51.936;7.184;2023-04-25T19:40:44;4.65;;;1.83;;
46607;SDS011;32330;51.936;7.184;2023-04-25T19:43:11;6.82;;;1.83;;
46607;SDS011;32330;51.936;7.184;2023-04-25T19:45:39;4.63;;;1.75;;
46607;SDS011;32330;51.936;7.184;2023-04-25T19:48:06;6.10;;;2.38;;
46607;SDS011;32330;51.936;7.184;2023-04-25T19:50:34;5.38;;;1.92;;
46607;SDS011;32330;51.936;7.184;2023-04-25T19:53:01;5.63;;;1.88;;
46607;SDS011;32330;51.936;7.184;2023-04-25T19:55:29;7.55;;;2.78;;
46607;SDS011;32330;51.936;7.184;2023-04-25T19:57:56;7.88;;;1.95;;
46607;SDS011;32330;51.936;7.184;2023-04-25T20:00:23;6.75;;;1.70;;
46607;SDS011;32330;51.936;7.184;2023-04-25T20:02:52;5.45;;;2.08;;
46607;SDS011;32330;51.936;7.184;2023-04-25T20:05:19;4.45;;;1.85;;
46607;SDS011;32330;51.936;7.184;2023-04-25T20:07:47;7.90;;;2.10;;
46607;SDS011;32330;51.936;7.184;2023-04-25T20:10:14;5.30;;;1.50;;
46607;SDS011;32330;51.936;7.184;2023-04-25T20:12:42;6.80;;;2.35;;
46607;SDS011;32330;51.936;7.184;2023-04-25T20:15:12;5.75;;;1.63;;
46607;SDS011;32330;51.936;7.184;2023-04-25T20:17:39;9.73;;;2.70;;
46607;SDS011;32330;51.936;7.184;2023-04-25T20:20:08;4.38;;;1.63;;
46607;SDS011;32330;51.936;7.184;2023-04-25T20:22:36;6.13;;;2.47;;
46607;SDS011;32330;51.936;7.184;2023-04-25T20:25:04;7.07;;;1.95;;
46607;SDS011;32330;51.936;7.184;2023-04-25T20:27:32;4.57;;;1.95;;
46607;SDS011;32330;51.936;7.184;2023-04-25T20:30:02;3.38;;;1.77;;
46607;SDS011;32330;51.936;7.184;2023-04-25T20:32:32;4.93;;;1.88;;
46607;SDS011;32330;51.936;7.184;2023-04-25T20:34:59;8.43;;;1.85;;
46607;SDS011;32330;51.936;7.184;2023-04-25T20:37:29;6.80;;;2.10;;
46607;SDS011;32330;51.936;7.184;2023-04-25T20:39:57;4.45;;;2.55;;
46607;SDS011;32330;51.936;7.184;2023-04-25T20:42:24;8.75;;;2.67;;
46607;SDS011;32330;51.936;7.184;2023-04-25T20:44:51;8.43;;;3.88;;
46607;SDS011;32330;51.936;7.184;2023-04-25T20:47:19;5.55;;;2.97;;
46607;SDS011;32330;51.936;7.184;2023-04-25T20:49:46;7.68;;;3.20;;
46607;SDS011;32330;51.936;7.184;2023-04-25T20:52:13;7.28;;;3.08;;
46607;SDS011;32330;51.936;7.184;2023-04-25T20:54:42;6.18;;;2.78;;
46607;SDS011;32330;51.936;7.184;2023-04-25T20:57:10;8.63;;;3.22;;
46607;SDS011;32330;51.936;7.184;2023-04-25T20:59:37;8.93;;;2.95;;
